Tiempo atmosférico en la estación meteorológica de Areso, Navarra (520 m.)

Fecha
DESCASC
Temp. máxima en grados centígrados (hora)
DESCASC
Temp. mínima en grados centígrados (hora)
DESCASC
Temp. media en grados centígrados
DESCASC
Racha de viento máxima en m/sg (hora)
DESCASC
Velocidad máxima media en intervalos de 10 minutos(hora)
DESCASC
Precipitaciones diarias en mm
DESCASC
Precipitaciones de 00:00 a 06:00 en mm
DESCASC
Precipitaciones de 06:00 a 12:00 en mm
DESCASC
Precipitaciones de 12:00 a 18:00 en mm
DESCASC
Precipitaciones de 18:00 a 24:00 en mm
DESCASC
19-10-2017 19 (15:50) 9.3 (23:40) 14.2 4.44 (16:10) 2.5 (16:10) 2.8 2.6 0.2 0 0
18-10-2017 18.5 (00:00) 11.6 (22:30) 15.1 13.89 (02:20) 6.94 (02:30) 7.4 0 0.8 3 3.6
17-10-2017 21.1 (16:50) 13.6 (00:00) 17.4 16.11 (12:00) 9.17 (08:30) 0 0 0 0 0
16-10-2017 24.7 (16:20) 13 (23:50) 18.9 15.56 (07:20) 8.61 (10:20) 0 0 0 0 0
15-10-2017 23 (17:00) 17.5 (00:00) 20.3 15.83 (04:30) 8.89 (22:40) 0 0 0 0 0
14-10-2017 24.8 (17:00) 12.5 (00:00) 18.6 14.72 (11:40) 8.89 (11:10) 0 0 0 0 0
13-10-2017 26.8 (17:00) 14.8 (00:00) 20.8 10 (13:30) 4.72 (12:20) 0 0 0 0 0
12-10-2017 25.2 (17:10) 8.3 (00:00) 16.8 6.94 (10:50) 3.33 (14:40) 0 0 0 0 0
11-10-2017 25.8 (16:40) 9.9 (00:00) 17.8 10 (12:40) 5.83 (12:20) 0 0 0 0 0
10-10-2017 23.1 (16:40) 6.4 (00:00) 14.8 3.61 (14:30) 1.39 (13:40) 0 0 0 0 0
09-10-2017 21.1 (17:00) 6 (00:00) 13.6 4.72 (14:30) 1.94 (14:30) 0 0 0 0 0
08-10-2017 19.9 (16:00) 5.5 (00:00) 12.7 3.89 (14:50) 1.67 (14:10) 0 0 0 0 0
07-10-2017 17.7 (15:20) 5.4 (00:00) 11.6 4.17 (14:30) 2.22 (14:30) 0 0 0 0 0
06-10-2017 15.9 (15:30) 8.6 (00:00) 12.3 6.39 (14:50) 1.94 (16:20) 2.2 0 1 1.2 0
05-10-2017 18.2 (17:00) 12.4 (00:00) 15.3 5.28 (17:20) 1.39 (17:30) 0.2 0 0 0.2 0
04-10-2017 25.1 (16:40) 12.8 (00:00) 19 9.44 (12:50) 5.28 (13:10) 0.8 0.8 0 0 0
03-10-2017 21.2 (13:30) 13.2 (00:00) 17.2 4.72 (16:20) 1.94 (16:20) 0.2 0.2 0 0 0
02-10-2017 18.6 (17:40) 15.1 (00:00) 16.9 2.5 (15:20) 1.11 (15:20) 11.6 2.6 7 2 0
01-10-2017 16.1 (16:00) 10 (00:00) 13.1 3.89 (17:30) 1.39 (12:50) 13.2 0 2.8 7.8 2.6
30-09-2017 16.1 (15:10) 11 (00:00) 13.6 3.33 (17:00) 1.11 (12:40) 1.2 0 1 0.2 0
29-09-2017 26.5 (16:00) 14.2 (00:00) 20.3 10 (05:20) 5.56 (05:50) 0 0 0 0 0
28-09-2017 25.4 (16:40) 13.8 (00:00) 19.6 12.78 (06:50) 6.94 (05:30) 0 0 0 0 0
27-09-2017 25.4 (17:40) 10.1 (00:00) 17.8 12.22 (11:20) 6.94 (11:10) 0 0 0 0 0
26-09-2017 19.7 (13:20) 10.7 (00:00) 15.2 -- (--) -- (--) 4 3.8 0.2 0 0
25-09-2017 17.4 (13:30) 12.5 (00:00) 14.9 6.67 (19:10) 2.22 (19:10) 7.4 1 2.4 2 2
24-09-2017 27.4 (17:00) 12.3 (00:00) 19.8 6.39 (13:40) 4.17 (12:40) 0 0 0 0 0
23-09-2017 24.3 (17:00) 9.6 (00:00) 16.9 12.22 (06:40) 5.83 (13:10) 0 0 0 0 0
22-09-2017 18.8 (18:00) 10.8 (00:00) 14.8 3.61 (17:50) 1.39 (16:10) 2.2 1 1 0.2 0
21-09-2017 23.1 (14:30) 9.9 (00:00) 16.5 5.28 (15:10) 2.22 (11:20) 0 0 0 0 0
20-09-2017 23.1 (17:00) 4.6 (00:00) 13.9 2.5 (15:40) 1.11 (14:10) 0 0 0 0 0

Gráficas

Temp. máximas Temp. mínimas Temp. medias Precipitaciones Rachas de viento máximas Velocidades máximas media en intervalos de 10 minutos

Datos horarios

Fecha y hora oficial Temperatura (ºC) Velocidad del viento (km/h) Dirección del viento Racha (km/h) Dirección de racha Precipitación (mm) Presión (hPa) Tendencia (hPa) Humedad (%)
2017-10-19 23:00:00 9.8 0 Calma 3 Oeste 0 -- -- 97
2017-10-19 22:00:00 10.2 0 Calma 3 Oeste 0 -- -- 96
2017-10-19 21:00:00 11 0 Calma 4 Noroeste 0 -- -- 94
2017-10-19 20:00:00 12.3 2 Noroeste 5 Noroeste 0 -- -- 91
2017-10-19 19:00:00 14.4 0 Calma 3 Oeste 0 -- -- 84
2017-10-19 18:00:00 18 4 Noroeste 10 Oeste 0 -- -- 66
2017-10-19 17:00:00 18.7 4 Sudoeste 16 Oeste 0 -- -- 60
2017-10-19 16:00:00 19 5 Nordeste 13 Oeste 0 -- -- 60
2017-10-19 15:00:00 18.5 6 Este 14 Norte 0 -- -- 71
2017-10-19 14:00:00 15.8 3 Este 10 Este 0 -- -- 79
2017-10-19 13:00:00 16.5 4 Sur 12 Sudoeste 0 -- -- 72
2017-10-19 12:00:00 15.3 2 Sur 7 Sur 0 -- -- 76
2017-10-19 11:00:00 14.8 2 Oeste 5 Oeste 0 -- -- 82
2017-10-19 10:00:00 11.8 0 Calma 2 Noroeste 0 -- -- 100
2017-10-19 09:00:00 10.8 0 Calma 4 Noroeste 0 -- -- 100
2017-10-19 08:00:00 11.1 0 Calma 0 Calma 0.2 -- -- 100
2017-10-19 07:00:00 11.2 0 Calma 4 Oeste 0 -- -- 100
2017-10-19 06:00:00 11.4 2 Oeste 5 Oeste 0 -- -- 100
2017-10-19 05:00:00 11.4 0 Calma 0 Calma 0 -- -- 100
2017-10-19 04:00:00 11.5 0 Calma 0 Calma 0 -- -- 100
2017-10-19 03:00:00 11.4 0 Calma 3 Oeste 0.2 -- -- 100
2017-10-19 02:00:00 11.5 0 Calma 6 Oeste 1.2 -- -- 99
2017-10-19 01:00:00 11.8 0 Calma 10 Noroeste 1.2 -- -- 99
2017-10-19 00:00:00 -- 0 Calma 6 Sudoeste 2.2 -- -- --
2017-10-18 23:00:00 11.7 0 Calma 4 Noroeste 1 -- -- 100
2017-10-18 22:00:00 11.8 0 Calma 3 Noroeste 0.2 -- -- 99
2017-10-18 21:00:00 12 0 Calma 3 Noroeste 0 -- -- 98
2017-10-18 20:00:00 12.3 0 Calma 4 Noroeste 0.2 -- -- 97
2017-10-18 19:00:00 12.7 3 Noroeste 5 Noroeste 0 -- -- 95
2017-10-18 18:00:00 13.3 0 Calma 3 Norte 0.4 -- -- 96
2017-10-18 17:00:00 13.2 4 Noroeste 7 Noroeste 0 -- -- 93
2017-10-18 16:00:00 13.3 2 Nordeste 45 Noroeste 0.6 -- -- 93
2017-10-18 15:00:00 16.2 9 Sudoeste 27 Sur 0 -- -- 81
2017-10-18 14:00:00 15.9 6 Sur 22 Sudoeste 1.6 -- -- 85
2017-10-18 13:00:00 16.3 5 Sur 29 Sudoeste 0.4 -- -- 85
2017-10-18 12:00:00 16.3 12 Sur 29 Sur 0 -- -- 85
2017-10-18 11:00:00 15.7 10 Sur 24 Sudoeste 0.6 -- -- 86
2017-10-18 10:00:00 15.9 11 Sudoeste 33 Sudeste 0.2 -- -- 83
2017-10-18 09:00:00 15.9 13 Sudeste 31 Sur 0 -- -- 82
2017-10-18 08:00:00 15.6 6 Sur 27 Sudoeste 0 -- -- 85
2017-10-18 07:00:00 16 13 Sudoeste 27 Sur 0 -- -- 81
2017-10-18 06:00:00 15.9 8 Sudeste 32 Sudeste 0 -- -- 80
2017-10-18 05:00:00 15.9 4 Sudoeste 24 Oeste 0 -- -- 79
2017-10-18 04:00:00 16.6 5 Sur 32 Sudoeste 0 -- -- 76
2017-10-18 03:00:00 17.4 15 Sudoeste 50 Sur 0 -- -- 72
2017-10-18 02:00:00 17.8 16 Sudoeste 36 Sur 0 -- -- 70
2017-10-18 01:00:00 18.4 12 Sudoeste 29 Sudoeste 0 -- -- 64
2017-10-18 00:00:00 18.5 10 Sur 30 Sur 0 -- -- 61
2017-10-17 23:00:00 19.1 15 Sur 40 Sur 0 -- -- 58
2017-10-17 22:00:00 19.3 14 Sudoeste 30 Sur 0 -- -- 58
2017-10-17 21:00:00 19.5 17 Sudoeste 31 Sur 0 -- -- 57
2017-10-17 20:00:00 19.6 12 Sur 30 Sudoeste 0 -- -- 56
2017-10-17 19:00:00 20.1 12 Sudoeste 27 Sudoeste 0 -- -- 52
2017-10-17 18:00:00 20.5 11 Sur 35 Sur 0 -- -- 50
2017-10-17 17:00:00 21.1 19 Sur 36 Sudoeste 0 -- -- 47
2017-10-17 16:00:00 20.6 21 Sur 41 Sudoeste 0 -- -- 48
2017-10-17 15:00:00 20.3 20 Sudoeste 45 Sudoeste 0 -- -- 51
2017-10-17 14:00:00 20.5 25 Sudoeste 53 Sudoeste 0 -- -- 57
2017-10-17 13:00:00 19.5 24 Sur 53 Sur 0 -- -- 62
2017-10-17 12:00:00 18.2 32 Sudoeste 58 Sudoeste 0 -- -- 67
2017-10-17 11:00:00 16.4 29 Sur 53 Sudeste 0 -- -- 74
2017-10-17 10:00:00 16.4 26 Sur 52 Sudoeste 0 -- -- 73
2017-10-17 09:00:00 16.3 22 Sur 53 Sudoeste 0 -- -- 73
2017-10-17 08:00:00 16.2 17 Sudoeste 47 Sur 0 -- -- 75
2017-10-17 07:00:00 16.9 30 Sur 49 Sudoeste 0 -- -- 72
2017-10-17 06:00:00 17.8 23 Sudoeste 47 Sur 0 -- -- 67
2017-10-17 05:00:00 17.9 22 Sudoeste 47 Sur 0 -- -- 67
2017-10-17 04:00:00 18.6 22 Sudoeste 39 Sudoeste 0 -- -- 64
2017-10-17 03:00:00 18.8 19 Sudoeste 43 Sudoeste 0 -- -- 65
2017-10-17 02:00:00 19.2 24 Sudoeste 43 Sur 0 -- -- 65
2017-10-17 01:00:00 18.8 21 Sudoeste 36 Sudoeste 0 -- -- 67
2017-10-17 00:00:00 13.6 3 Oeste 9 Oeste 0 -- -- 100
2017-10-16 23:00:00 13.6 0 Calma 3 Norte 0 -- -- 98
2017-10-16 22:00:00 14.5 0 Calma 4 Norte 0 -- -- 97
2017-10-16 21:00:00 15.2 0 Calma 9 Noroeste 0 -- -- 95
2017-10-16 20:00:00 16.4 0 Calma 9 Norte 0 -- -- 91
2017-10-16 19:00:00 19 2 Este 15 Nordeste 0 -- -- 79
2017-10-16 18:00:00 23.2 5 Nordeste 13 Norte 0 -- -- 58
2017-10-16 17:00:00 24.6 5 Este 27 Sur 0 -- -- 46
2017-10-16 16:00:00 24.3 17 Sudoeste 39 Sur 0 -- -- 50
2017-10-16 15:00:00 23.4 21 Sudoeste 46 Sudoeste 0 -- -- 54
2017-10-16 14:00:00 22.5 23 Sudoeste 50 Sur 0 -- -- 56
2017-10-16 13:00:00 21.8 20 Sur 44 Sur 0 -- -- 61
2017-10-16 12:00:00 21.1 10 Sur 52 Sudoeste 0 -- -- 64
2017-10-16 11:00:00 19.4 31 Sudoeste 55 Sudoeste 0 -- -- 67
2017-10-16 10:00:00 18.8 26 Sudoeste 54 Sur 0 -- -- 68
2017-10-16 09:00:00 18.2 26 Sudoeste 55 Sudoeste 0 -- -- 70
2017-10-16 08:00:00 18.5 28 Sur 56 Sudeste 0 -- -- 68
2017-10-16 07:00:00 18.6 21 Sur 55 Sudoeste 0 -- -- 70
2017-10-16 06:00:00 18.8 19 Sur 48 Sur 0 -- -- 70
2017-10-16 05:00:00 18.5 18 Sur 46 Sudoeste 0 -- -- 74
2017-10-16 04:00:00 19 23 Sur 44 Sur 0 -- -- 72
2017-10-16 03:00:00 19.5 23 Sur 47 Sur 0 -- -- 71
2017-10-16 02:00:00 19.8 19 Sur 46 Sudeste 0 -- -- 69
2017-10-16 01:00:00 20.2 12 Sur 41 Sur 0 -- -- 68
2017-10-16 00:00:00 20.5 19 Sudoeste 47 Sur 0 -- -- 67
2017-10-15 23:00:00 20.5 25 Sudoeste 56 Sudoeste 0 -- -- 68
2017-10-15 22:00:00 20.7 22 Sur 49 Sur 0 -- -- 63
2017-10-15 21:00:00 20.8 21 Sudoeste 37 Sudoeste 0 -- -- 66
2017-10-15 20:00:00 20.8 9 Oeste 23 Sur 0 -- -- 67
2017-10-15 19:00:00 21.6 10 Sudoeste 41 Sudoeste 0 -- -- 64
2017-10-15 18:00:00 22.6 18 Sudoeste 42 Sudoeste 0 -- -- 61
2017-10-15 17:00:00 23 15 Sudoeste 39 Sudoeste 0 -- -- 60
2017-10-15 16:00:00 22.3 23 Sudoeste 43 Sudoeste 0 -- -- 64
2017-10-15 15:00:00 21.5 27 Sudoeste 51 Sudoeste 0 -- -- 65
2017-10-15 14:00:00 20.9 21 Sudoeste 48 Sudoeste 0 -- -- 67
2017-10-15 13:00:00 20.2 27 Sudoeste 52 Sudoeste 0 -- -- 70
2017-10-15 12:00:00 19.3 23 Sudoeste 51 Sudoeste 0 -- -- 73
2017-10-15 11:00:00 18.5 27 Sudoeste 57 Sudoeste 0 -- -- 75
2017-10-15 10:00:00 17.8 25 Sudoeste 54 Sudoeste 0 -- -- 79
2017-10-15 09:00:00 17.5 24 Sudoeste 52 Sudoeste 0 -- -- 78
2017-10-15 08:00:00 17.8 24 Sudoeste 50 Sudoeste 0 -- -- 77
2017-10-15 07:00:00 18.2 28 Sudoeste 56 Sudoeste 0 -- -- 77
2017-10-15 06:00:00 18.6 28 Sur 53 Sudoeste 0 -- -- 75
2017-10-15 05:00:00 19 27 Sudoeste 57 Sudoeste 0 -- -- 74
2017-10-15 04:00:00 19.3 24 Sudoeste 49 Sudoeste 0 -- -- 73
2017-10-15 03:00:00 19.6 20 Sur 47 Sudoeste 0 -- -- 72
2017-10-15 02:00:00 20.1 21 Sudoeste 51 Sudoeste 0 -- -- 70
2017-10-15 01:00:00 20.6 24 Sur 45 Sur 0 -- -- 69
2017-10-15 00:00:00 20.8 23 Sur 39 Sur 0 -- -- 69
2017-10-14 23:00:00 21 17 Sudoeste 41 Sudoeste 0 -- -- 69
2017-10-14 22:00:00 21.3 19 Sur 39 Sudoeste 0 -- -- 67
2017-10-14 21:00:00 21.8 21 Sur 37 Sur 0 -- -- 63
2017-10-14 20:00:00 20.7 3 Noroeste 22 Sur 0 -- -- 65
2017-10-14 19:00:00 23.1 10 Sudoeste 24 Oeste 0 -- -- 55
2017-10-14 18:00:00 24.6 13 Sudoeste 33 Sudoeste 0 -- -- 50
2017-10-14 17:00:00 24.8 19 Sudoeste 40 Sudoeste 0 -- -- 50
2017-10-14 16:00:00 24.5 20 Sudoeste 43 Sur 0 -- -- 52
2017-10-14 15:00:00 23.8 18 Sur 42 Sudoeste 0 -- -- 56
2017-10-14 14:00:00 23.1 18 Sur 42 Sur 0 -- -- 58
2017-10-14 13:00:00 22.3 20 Sur 44 Sudoeste 0 -- -- 61
2017-10-14 12:00:00 20.9 27 Sudoeste 53 Sudoeste 0 -- -- 65
2017-10-14 11:00:00 19.8 30 Sudoeste 51 Sudoeste 0 -- -- 69
2017-10-14 10:00:00 19.3 20 Sudoeste 37 Sudoeste 0 -- -- 68
2017-10-14 09:00:00 18.4 20 Sudoeste 34 Sudoeste 0 -- -- 73
2017-10-14 08:00:00 18.4 19 Sudoeste 39 Sudoeste 0 -- -- 72
2017-10-14 07:00:00 18.7 16 Sudoeste 34 Oeste 0 -- -- 71
2017-10-14 06:00:00 13.2 4 Oeste 12 Noroeste 0 -- -- 100
2017-10-14 05:00:00 12.6 0 Calma 9 Sudeste 0 -- -- 100
2017-10-14 04:00:00 12.7 0 Calma 4 Norte 0 -- -- 100
2017-10-14 03:00:00 13.4 0 Calma 4 Nordeste 0 -- -- 100
2017-10-14 02:00:00 13.9 0 Calma 5 Norte 0 -- -- 100
2017-10-14 01:00:00 14.4 0 Calma 4 Norte 0 -- -- 100
2017-10-14 00:00:00 14.9 0 Calma 4 Norte 0 -- -- 99
2017-10-13 23:00:00 15.1 2 Norte 4 Noroeste 0 -- -- 97
2017-10-13 22:00:00 15.6 0 Calma 5 Sudoeste 0 -- -- 93
2017-10-13 21:00:00 16.6 0 Calma 3 Sur 0 -- -- 89
2017-10-13 20:00:00 18.3 0 Calma 7 Sur 0 -- -- 81
2017-10-13 19:00:00 20.7 3 Este 8 Este 0 -- -- 72
2017-10-13 18:00:00 25.1 4 Nordeste 10 Nordeste 0 -- -- 56
2017-10-13 17:00:00 26.8 3 Oeste 14 Sur 0 -- -- 51
2017-10-13 16:00:00 26.2 9 Sudoeste 19 Sudoeste 0 -- -- 45
2017-10-13 15:00:00 25.5 12 Sudoeste 27 Sur 0 -- -- 45
2017-10-13 14:00:00 24.3 14 Sudoeste 36 Sudoeste 0 -- -- 50
2017-10-13 13:00:00 23 17 Sudoeste 31 Sudoeste 0 -- -- 57
2017-10-13 12:00:00 22.4 11 Sudoeste 28 Sur 0 -- -- 60
2017-10-13 11:00:00 21.3 12 Oeste 26 Noroeste 0 -- -- 61
2017-10-13 10:00:00 20 8 Noroeste 18 Noroeste 0 -- -- 56
2017-10-13 09:00:00 18.9 7 Noroeste 19 Oeste 0 -- -- 61
2017-10-13 08:00:00 18.4 4 Norte 18 Norte 0 -- -- 64
2017-10-13 07:00:00 19.3 8 Oeste 18 Noroeste 0 -- -- 58
2017-10-13 06:00:00 19.2 9 Noroeste 17 Oeste 0 -- -- 58
2017-10-13 05:00:00 19.5 8 Noroeste 18 Oeste 0 -- -- 62
2017-10-13 04:00:00 19.8 11 Oeste 24 Oeste 0 -- -- 64
2017-10-13 03:00:00 19.8 12 Oeste 27 Sudoeste 0 -- -- 62
2017-10-13 02:00:00 19.7 9 Oeste 21 Sudoeste 0 -- -- 61
2017-10-13 01:00:00 19.6 7 Oeste 15 Noroeste 0 -- -- 61
2017-10-13 00:00:00 19.4 10 Noroeste 15 Noroeste 0 -- -- 58
2017-10-12 23:00:00 15 2 Noroeste 5 Noroeste 0 -- -- 76
2017-10-12 22:00:00 14.4 0 Calma 4 Sudoeste 0 -- -- 82
2017-10-12 21:00:00 15.2 0 Calma 4 Oeste 0 -- -- 82
2017-10-12 20:00:00 16.9 0 Calma 3 Noroeste 0 -- -- 77
2017-10-12 19:00:00 19.9 0 Calma 5 Oeste 0 -- -- 68
2017-10-12 18:00:00 24.7 0 Calma 11 Sudoeste 0 -- -- 54
2017-10-12 17:00:00 25.1 5 Oeste 15 Oeste 0 -- -- 44
2017-10-12 16:00:00 24.9 9 Sudoeste 22 Sur 0 -- -- 47
2017-10-12 15:00:00 24.1 8 Sudoeste 24 Sudoeste 0 -- -- 48
2017-10-12 14:00:00 23.2 9 Sudoeste 21 Sur 0 -- -- 54
2017-10-12 13:00:00 22 5 Noroeste 15 Sur 0 -- -- 60
2017-10-12 12:00:00 20.5 4 Sudoeste 25 Oeste 0 -- -- 63
2017-10-12 11:00:00 17 10 Oeste 25 Oeste 0 -- -- 73
2017-10-12 10:00:00 11.3 2 Nordeste 8 Norte 0 -- -- 100
2017-10-12 09:00:00 8.4 0 Calma 2 Norte 0 -- -- 100
2017-10-12 08:00:00 8.6 0 Calma 2 Norte 0 -- -- 100
2017-10-12 07:00:00 8.9 0 Calma 0 Calma 0 -- -- 100
2017-10-12 06:00:00 8.8 0 Calma 2 Norte 0 -- -- 100
2017-10-12 05:00:00 9.1 0 Calma 2 Norte 0 -- -- 100
2017-10-12 04:00:00 9.8 0 Calma 2 Norte 0 -- -- 100
2017-10-12 03:00:00 10.1 0 Calma 0 Calma 0 -- -- 100
2017-10-12 02:00:00 10.3 0 Calma 3 Norte 0 -- -- 100
2017-10-12 01:00:00 10.9 0 Calma 2 Noroeste 0 -- -- 99
2017-10-12 00:00:00 11.5 0 Calma 2 Noroeste 0 -- -- 98
2017-10-11 23:00:00 12.2 0 Calma 4 Noroeste 0 -- -- 97
2017-10-11 22:00:00 12.7 0 Calma 5 Norte 0 -- -- 94
2017-10-11 21:00:00 13.8 0 Calma 6 Norte 0 -- -- 91
2017-10-11 20:00:00 15.4 2 Norte 13 Nordeste 0 -- -- 83
2017-10-11 19:00:00 17.6 3 Nordeste 12 Norte 0 -- -- 71
2017-10-11 18:00:00 20.8 3 Nordeste 12 Nordeste 0 -- -- 61
2017-10-11 17:00:00 24.5 4 Este 12 Nordeste 0 -- -- 52
2017-10-11 16:00:00 25 2 Sur 15 Sudoeste 0 -- -- 44
2017-10-11 15:00:00 24.2 8 Sudoeste 22 Sur 0 -- -- 43
2017-10-11 14:00:00 22.6 10 Sudoeste 36 Sudoeste 0 -- -- 48
2017-10-11 13:00:00 21.4 17 Sudoeste 36 Sur 0 -- -- 50
2017-10-11 12:00:00 19.8 17 Sudoeste 33 Sudoeste 0 -- -- 57
2017-10-11 11:00:00 18.9 14 Sudoeste 30 Sudoeste 0 -- -- 60
2017-10-11 10:00:00 17.8 12 Oeste 27 Oeste 0 -- -- 56
2017-10-11 09:00:00 17 14 Oeste 32 Oeste 0 -- -- 52
2017-10-11 08:00:00 17.4 17 Sudoeste 33 Oeste 0 -- -- 50
2017-10-11 07:00:00 17.5 15 Oeste 28 Oeste 0 -- -- 48
2017-10-11 06:00:00 17.4 10 Oeste 28 Oeste 0 -- -- 48
2017-10-11 05:00:00 17.5 13 Oeste 22 Noroeste 0 -- -- 47
2017-10-11 04:00:00 16 8 Oeste 18 Sudoeste 0 -- -- 54
2017-10-11 03:00:00 13.1 4 Noroeste 9 Norte 0 -- -- 73
2017-10-11 02:00:00 11.3 0 Calma 2 Sur 0 -- -- 85
2017-10-11 01:00:00 10 0 Calma 2 Sur 0 -- -- 96
2017-10-11 00:00:00 10.5 0 Calma 0 Calma 0 -- -- 99
2017-10-10 23:00:00 11.3 0 Calma 2 Sur 0 -- -- 98
2017-10-10 22:00:00 12.2 0 Calma 3 Sur 0 -- -- 97
2017-10-10 21:00:00 13.4 0 Calma 5 Sur 0 -- -- 94
2017-10-10 20:00:00 14.6 0 Calma 4 Sudeste 0 -- -- 89
2017-10-10 19:00:00 18 0 Calma 4 Sudeste 0 -- -- 74
2017-10-10 18:00:00 22.2 0 Calma 4 Sudeste 0 -- -- 59
2017-10-10 17:00:00 22.8 3 Sudeste 6 Sudeste 0 -- -- 52
2017-10-10 16:00:00 22.4 3 Sudeste 8 Nordeste 0 -- -- 57
2017-10-10 15:00:00 21.4 5 Este 13 Este 0 -- -- 60
2017-10-10 14:00:00 20.8 3 Este 12 Este 0 -- -- 58
2017-10-10 13:00:00 19.4 4 Sudoeste 8 Sur 0 -- -- 67
2017-10-10 12:00:00 16.8 4 Sudeste 9 Sudeste 0 -- -- 81
2017-10-10 11:00:00 12.6 0 Calma 4 Este 0 -- -- 100
2017-10-10 10:00:00 9.3 0 Calma 2 Nordeste 0 -- -- 100
2017-10-10 09:00:00 7 0 Calma 0 Calma 0 -- -- 100
2017-10-10 08:00:00 6.6 0 Calma 2 Nordeste 0 -- -- 100
2017-10-10 07:00:00 6.5 0 Calma -- -- 0 -- -- 100
2017-10-10 06:00:00 7.5 0 Calma 2 Nordeste 0 -- -- 100
2017-10-10 05:00:00 8.6 0 Calma 2 Nordeste 0 -- -- 100
2017-10-10 04:00:00 9.3 0 Calma 2 Nordeste 0 -- -- 100
2017-10-10 03:00:00 9.5 0 Calma 3 Nordeste 0 -- -- 100
2017-10-10 02:00:00 9.5 0 Calma -- -- 0 -- -- 100
2017-10-10 01:00:00 9.5 0 Calma -- -- 0 -- -- 100
2017-10-10 00:00:00 9.9 0 Calma -- -- 0 -- -- 100
2017-10-09 23:00:00 10.4 0 Calma 0 Calma 0 -- -- 99
2017-10-09 22:00:00 11.2 0 Calma 2 Nordeste 0 -- -- 98
2017-10-09 21:00:00 12.2 0 Calma 3 Nordeste 0 -- -- 96
2017-10-09 20:00:00 14 0 Calma 4 Este 0 -- -- 89
2017-10-09 19:00:00 16.6 0 Calma 7 Nordeste 0 -- -- 80
2017-10-09 18:00:00 19.6 2 Norte 11 Norte 0 -- -- 67
2017-10-09 17:00:00 21.1 3 Norte 10 Norte 0 -- -- 58
2017-10-09 16:00:00 20.5 5 Este 13 Este 0 -- -- 58
2017-10-09 15:00:00 20.4 4 Sudoeste 17 Sur 0 -- -- 64
2017-10-09 14:00:00 19.4 3 Nordeste 12 Este 0 -- -- 62
2017-10-09 13:00:00 17.9 5 Este 12 Este 0 -- -- 69
2017-10-09 12:00:00 15.4 3 Sudoeste 7 Sudoeste 0 -- -- 81
2017-10-09 11:00:00 11.9 2 Norte 4 Norte 0 -- -- 100
2017-10-09 10:00:00 9.1 0 Calma 2 Nordeste 0 -- -- 100
2017-10-09 09:00:00 6.7 0 Calma 2 Nordeste 0 -- -- 100
2017-10-09 08:00:00 6.3 0 Calma 2 Norte 0 -- -- 100
2017-10-09 07:00:00 6.1 0 Calma 0 Calma 0 -- -- 100
2017-10-09 06:00:00 6.4 0 Calma 0 Calma 0 -- -- 100
2017-10-09 05:00:00 6.3 0 Calma -- -- 0 -- -- 100
2017-10-09 04:00:00 6.4 0 Calma -- -- 0 -- -- 100
2017-10-09 03:00:00 6.7 0 Calma -- -- 0 -- -- 100
2017-10-09 02:00:00 7 0 Calma 0 Calma 0 -- -- 100
2017-10-09 01:00:00 7.4 0 Calma 0 Calma 0 -- -- 100
2017-10-09 00:00:00 7.9 0 Calma 0 Calma 0 -- -- 100
2017-10-08 23:00:00 8.5 0 Calma 2 Norte 0 -- -- 98
2017-10-08 22:00:00 9.3 0 Calma 0 Calma 0 -- -- 96
2017-10-08 21:00:00 10.3 0 Calma 0 Calma 0 -- -- 92
2017-10-08 20:00:00 12.1 0 Calma 4 Norte 0 -- -- 85
2017-10-08 19:00:00 14.7 0 Calma 12 Norte 0 -- -- 74
2017-10-08 18:00:00 18.2 2 Norte 14 Norte 0 -- -- 62
2017-10-08 17:00:00 19 4 Nordeste 13 Norte 0 -- -- 60
2017-10-08 16:00:00 19.9 3 Oeste 11 Oeste 0 -- -- 59
2017-10-08 15:00:00 19.6 3 Noroeste 14 Sudeste 0 -- -- 58
2017-10-08 14:00:00 18.7 4 Sudeste 11 Este 0 -- -- 68
2017-10-08 13:00:00 17.3 5 Este 10 Este 0 -- -- 67
2017-10-08 12:00:00 15.3 5 Este 10 Este 0 -- -- 81
2017-10-08 11:00:00 11.2 0 Calma 3 Este 0 -- -- 100
2017-10-08 10:00:00 8.2 0 Calma 0 Calma 0 -- -- 100
2017-10-08 09:00:00 5.6 0 Calma 2 Nordeste 0 -- -- 100
2017-10-08 08:00:00 5.7 0 Calma 0 Calma 0 -- -- 100
2017-10-08 07:00:00 6.1 0 Calma -- -- 0 -- -- 100
2017-10-08 06:00:00 6.2 0 Calma 2 Nordeste 0 -- -- 100
2017-10-08 05:00:00 6.3 0 Calma 0 Calma 0 -- -- 100
2017-10-08 04:00:00 6.7 0 Calma 0 Calma 0 -- -- 100
2017-10-08 03:00:00 6.9 0 Calma 0 Calma 0 -- -- 100
2017-10-08 02:00:00 7.1 0 Calma 2 Nordeste 0 -- -- 100
2017-10-08 01:00:00 7.6 0 Calma 0 Calma 0 -- -- 100
2017-10-08 00:00:00 7.9 0 Calma 2 Nordeste 0 -- -- 100
2017-10-07 23:00:00 8.4 0 Calma 3 Nordeste 0 -- -- 100
2017-10-07 22:00:00 9.1 0 Calma 2 Nordeste 0 -- -- 98
2017-10-07 21:00:00 10 0 Calma 2 Nordeste 0 -- -- 96
2017-10-07 20:00:00 11.4 0 Calma 4 Este 0 -- -- 91
2017-10-07 19:00:00 14.4 0 Calma 6 Nordeste 0 -- -- 80
2017-10-07 18:00:00 16.7 0 Calma 11 Este 0 -- -- 73
2017-10-07 17:00:00 17.4 4 Nordeste 13 Norte 0 -- -- 69
2017-10-07 16:00:00 17.6 3 Nordeste 13 Nordeste 0 -- -- 69
2017-10-07 15:00:00 17.2 4 Este 15 Noroeste 0 -- -- 67
2017-10-07 14:00:00 16.5 4 Este 12 Nordeste 0 -- -- 72
2017-10-07 13:00:00 15.6 5 Este 10 Nordeste 0 -- -- 71
2017-10-07 12:00:00 14.1 4 Sur 9 Sur 0 -- -- 72
2017-10-07 11:00:00 11.1 3 Este 5 Este 0 -- -- 100
2017-10-07 10:00:00 7.7 0 Calma 2 Norte 0 -- -- 100
2017-10-07 09:00:00 5.5 0 Calma 2 Nordeste 0 -- -- 100
2017-10-07 08:00:00 6 0 Calma 2 Norte 0 -- -- 100
2017-10-07 07:00:00 6.7 0 Calma 0 Calma 0 -- -- 100
2017-10-07 06:00:00 7.1 0 Calma 2 Norte 0 -- -- 100
2017-10-07 05:00:00 7.9 0 Calma 2 Norte 0 -- -- 100
2017-10-07 04:00:00 8.6 0 Calma 2 Norte 0 -- -- 100
2017-10-07 03:00:00 8.4 0 Calma 2 Norte 0 -- -- 100
2017-10-07 02:00:00 8.1 0 Calma 2 Norte 0 -- -- 100
2017-10-07 01:00:00 8.2 0 Calma 3 Norte 0 -- -- 100
2017-10-07 00:00:00 8.6 0 Calma 2 Norte 0 -- -- 100
2017-10-06 23:00:00 9 0 Calma 2 Norte 0 -- -- 100
2017-10-06 22:00:00 9.8 0 Calma 9 Este 0 -- -- 98
2017-10-06 21:00:00 11.1 0 Calma 9 Este 0 -- -- 95
2017-10-06 20:00:00 12.4 2 Este 12 Oeste 0 -- -- 93
2017-10-06 19:00:00 13.5 3 Oeste 12 Oeste 0 -- -- 91
2017-10-06 18:00:00 14 3 Oeste 15 Sudeste 0 -- -- 93
2017-10-06 17:00:00 15.1 4 Sudoeste 16 Este 0 -- -- 88
2017-10-06 16:00:00 15.5 4 Sudeste 16 Nordeste 0 -- -- 91
2017-10-06 15:00:00 15.4 4 Sur 23 Noroeste 0.2 -- -- 98
2017-10-06 14:00:00 14.8 5 Sudeste 17 Este 0.4 -- -- 99
2017-10-06 13:00:00 14.9 4 Sur 9 Sudeste 0.6 -- -- 100
2017-10-06 12:00:00 14.1 3 Este 8 Este 0.2 -- -- 100
2017-10-06 11:00:00 13.7 2 Sudeste 9 Este 0.6 -- -- 100
2017-10-06 10:00:00 12.9 3 Este 5 Sudeste 0.2 -- -- 100
2017-10-06 09:00:00 12.9 0 Calma 5 Sur 0 -- -- 99
2017-10-06 08:00:00 12.9 0 Calma 8 Sudoeste 0 -- -- 98
2017-10-06 07:00:00 12.8 0 Calma 4 Sudoeste 0 -- -- 98
2017-10-06 06:00:00 13 0 Calma 9 Oeste 0 -- -- 96
2017-10-06 05:00:00 13.1 3 Norte 10 Norte 0 -- -- 97
2017-10-06 04:00:00 13.6 2 Nordeste 9 Nordeste 0 -- -- 98
2017-10-06 03:00:00 14 0 Calma 9 Nordeste 0 -- -- 98
2017-10-06 02:00:00 14.3 0 Calma 9 Noroeste 0 -- -- 97
2017-10-06 01:00:00 14.4 0 Calma 9 Este 0 -- -- 98
2017-10-06 00:00:00 14.6 2 Sudeste 12 Este 0 -- -- 98
2017-10-05 23:00:00 14.7 2 Este 6 Este 0 -- -- 96
2017-10-05 22:00:00 15.1 2 Sur 11 Sur 0 -- -- 96
2017-10-05 21:00:00 15.5 3 Este 13 Noroeste 0 -- -- 94
2017-10-05 20:00:00 16.3 3 Sur 9 Sudeste 0 -- -- 96
2017-10-05 19:00:00 16.8 0 Calma 10 Este 0 -- -- 94
2017-10-05 18:00:00 17.3 3 Este 19 Nordeste 0 -- -- 93
2017-10-05 17:00:00 18.2 0 Calma 12 Este 0 -- -- 93
2017-10-05 16:00:00 17.9 2 Norte 8 Este 0 -- -- 95
2017-10-05 15:00:00 17.6 3 Este 8 Este 0 -- -- 100
2017-10-05 14:00:00 17.1 0 Calma 4 Este 0.2 -- -- 100
2017-10-05 13:00:00 16.9 0 Calma 3 Este 0 -- -- 100
2017-10-05 12:00:00 15.8 0 Calma 3 Este 0 -- -- 100
2017-10-05 11:00:00 14.5 0 Calma 3 Este 0 -- -- 100
2017-10-05 10:00:00 13.6 0 Calma 2 Este 0 -- -- 100
2017-10-05 09:00:00 12.5 0 Calma 2 Este 0 -- -- 100
2017-10-05 08:00:00 12.6 0 Calma 2 Nordeste 0 -- -- 100
2017-10-05 07:00:00 12.7 0 Calma 2 Nordeste 0 -- -- 100
2017-10-05 06:00:00 13.4 0 Calma 4 Este 0 -- -- 100
2017-10-05 05:00:00 14.1 0 Calma 5 Este 0 -- -- 100
2017-10-05 04:00:00 13.8 0 Calma 5 Nordeste 0 -- -- 100
2017-10-05 03:00:00 13.9 0 Calma 6 Este 0 -- -- 100
2017-10-05 02:00:00 14.1 0 Calma 4 Nordeste 0 -- -- 100
2017-10-05 01:00:00 14.5 0 Calma 2 Nordeste 0 -- -- 100
2017-10-05 00:00:00 15.2 0 Calma 3 Nordeste 0 -- -- 100
2017-10-04 23:00:00 15.9 0 Calma 2 Nordeste 0 -- -- 99
2017-10-04 22:00:00 16.7 0 Calma 2 Este 0 -- -- 98
2017-10-04 21:00:00 17.7 0 Calma 3 Este 0 -- -- 97
2017-10-04 20:00:00 19.1 0 Calma 9 Nordeste 0 -- -- 93
2017-10-04 19:00:00 20.8 3 Nordeste 13 Nordeste 0 -- -- 86
2017-10-04 18:00:00 23.5 0 Calma 12 Sudoeste 0 -- -- 74
2017-10-04 17:00:00 25.1 5 Sur 17 Sur 0 -- -- 64
2017-10-04 16:00:00 24.6 3 Sudeste 14 Sudoeste 0 -- -- 65
2017-10-04 15:00:00 23.6 8 Sur 19 Sudoeste 0 -- -- 65
2017-10-04 14:00:00 22.4 9 Sudoeste 32 Sudoeste 0 -- -- 68
2017-10-04 13:00:00 21.3 18 Sudoeste 34 Sudoeste 0 -- -- 73
2017-10-04 12:00:00 19.7 8 Sudoeste 20 Sudoeste 0 -- -- 81
2017-10-04 11:00:00 -- 5 Oeste 22 Oeste 0 -- -- --
2017-10-04 10:00:00 16.5 3 Noroeste 7 Noroeste 0 -- -- 100
2017-10-04 09:00:00 12.8 0 Calma 4 Oeste 0 -- -- 100
2017-10-04 08:00:00 13.3 0 Calma 3 Noroeste 0 -- -- 100
2017-10-04 07:00:00 13.3 0 Calma 3 Noroeste 0 -- -- 100
2017-10-04 06:00:00 13.9 2 Noroeste 7 Noroeste 0 -- -- 100
2017-10-04 05:00:00 14.5 3 Nordeste 5 Nordeste 0 -- -- 100
2017-10-04 04:00:00 15.5 0 Calma 12 Este 0.2 -- -- 100
2017-10-04 03:00:00 15.8 0 Calma 3 Nordeste 0.2 -- -- 100
2017-10-04 02:00:00 15.9 0 Calma 4 Nordeste 0.4 -- -- 100
2017-10-04 01:00:00 16 0 Calma 6 Norte 0 -- -- 100
2017-10-04 00:00:00 15.9 0 Calma 6 Norte 0 -- -- 99
2017-10-03 23:00:00 16.2 3 Nordeste 4 Nordeste 0 -- -- 97
2017-10-03 22:00:00 16.3 0 Calma 11 Nordeste 0 -- -- 97
2017-10-03 21:00:00 16.7 0 Calma 9 Este 0 -- -- 97
2017-10-03 20:00:00 17.3 2 Sur 8 Este 0 -- -- 94
2017-10-03 19:00:00 18.4 3 Nordeste 9 Nordeste 0 -- -- 88
2017-10-03 18:00:00 19.5 2 Sudoeste 14 Este 0 -- -- 82
2017-10-03 17:00:00 20.4 3 Nordeste 17 Noroeste 0 -- -- 80
2017-10-03 16:00:00 20.5 4 Sur 14 Este 0 -- -- 82
2017-10-03 15:00:00 20.1 5 Este 12 Este 0 -- -- 83
2017-10-03 14:00:00 20.7 4 Norte 14 Este 0 -- -- 80
2017-10-03 13:00:00 20.4 5 Nordeste 12 Nordeste 0 -- -- 87
2017-10-03 12:00:00 19.3 2 Nordeste 7 Nordeste 0 -- -- 92
2017-10-03 11:00:00 16.8 2 Noroeste 4 Noroeste 0 -- -- 100
2017-10-03 10:00:00 15 0 Calma 2 Noroeste 0 -- -- 100
2017-10-03 09:00:00 13.9 0 Calma 2 Nordeste 0 -- -- 100
2017-10-03 08:00:00 13.5 0 Calma 2 Noroeste 0 -- -- 100
2017-10-03 07:00:00 13.5 0 Calma 2 Noroeste 0 -- -- 100
2017-10-03 06:00:00 13.4 0 Calma 2 Noroeste 0 -- -- 100
2017-10-03 05:00:00 13.4 0 Calma 2 Noroeste 0 -- -- 100
2017-10-03 04:00:00 13.9 0 Calma 2 Noroeste 0 -- -- 100
2017-10-03 03:00:00 14.7 0 Calma 3 Noroeste 0.2 -- -- 100
2017-10-03 02:00:00 15.5 2 Noroeste 4 Noroeste 0 -- -- 100
2017-10-03 01:00:00 16 0 Calma 5 Noroeste 0 -- -- 100
2017-10-03 00:00:00 16.6 2 Noroeste 4 Noroeste 0 -- -- 100
2017-10-02 23:00:00 17.2 0 Calma 2 Nordeste 0 -- -- 100
2017-10-02 22:00:00 17.4 0 Calma -- -- 0 -- -- 100
2017-10-02 21:00:00 17.5 0 Calma 3 Noroeste 0 -- -- 100
2017-10-02 20:00:00 17.7 0 Calma 4 Noroeste 0 -- -- 100
2017-10-02 19:00:00 18.1 0 Calma 5 Norte 0 -- -- 99
2017-10-02 18:00:00 18.4 3 Norte 7 Norte 0 -- -- 98
2017-10-02 17:00:00 18.1 2 Noroeste 9 Noroeste 0 -- -- 100
2017-10-02 16:00:00 18 2 Sudeste 9 Este 0.2 -- -- 100
2017-10-02 15:00:00 17.9 3 Este 8 Este 0.2 -- -- 100
2017-10-02 14:00:00 17.5 3 Este 8 Sudeste 0.6 -- -- 100
2017-10-02 13:00:00 17.1 0 Calma 7 Sudeste 1 -- -- 100
2017-10-02 12:00:00 16.7 3 Este 6 Este 1.2 -- -- 100
2017-10-02 11:00:00 16.4 3 Este 9 Este 1.2 -- -- 100
2017-10-02 10:00:00 16.1 0 Calma 4 Nordeste 1.2 -- -- 100
2017-10-02 09:00:00 15.5 0 Calma 4 Nordeste 1.2 -- -- 100
2017-10-02 08:00:00 15.4 0 Calma 5 Nordeste 1.2 -- -- 100
2017-10-02 07:00:00 15.3 0 Calma 3 Nordeste 1 -- -- 100
2017-10-02 06:00:00 15.3 0 Calma 2 Nordeste 0.8 -- -- 100
2017-10-02 05:00:00 15.3 0 Calma 3 Nordeste 1 -- -- 100
2017-10-02 04:00:00 15.3 0 Calma 2 Nordeste 0.4 -- -- 100
2017-10-02 03:00:00 15.2 0 Calma 2 Nordeste 0.4 -- -- 100
2017-10-02 02:00:00 15.3 0 Calma 3 Nordeste 0 -- -- 100
2017-10-02 01:00:00 15.3 0 Calma 3 Nordeste 0 -- -- 100
2017-10-02 00:00:00 15.4 0 Calma 4 Nordeste 0 -- -- 100
2017-10-01 23:00:00 15.5 0 Calma 8 Nordeste 0.2 -- -- 100
2017-10-01 22:00:00 15.7 0 Calma 6 Norte 0.2 -- -- 100
2017-10-01 21:00:00 15.7 3 Sudeste 6 Sudeste 0.2 -- -- 100
2017-10-01 20:00:00 15.9 2 Sudeste 9 Nordeste 0.8 -- -- 100
2017-10-01 19:00:00 16 0 Calma 6 Sudeste 1.2 -- -- 100
2017-10-01 18:00:00 16 2 Sudeste 14 Oeste 0.4 -- -- 100
2017-10-01 17:00:00 15.9 2 Sudeste 7 Sudeste 1 -- -- 100
2017-10-01 16:00:00 16.1 2 Sudoeste 8 Sur 1.6 -- -- 100
2017-10-01 15:00:00 15.6 3 Sur 5 Sur 2 -- -- 100
2017-10-01 14:00:00 15.4 2 Sur 5 Sur 1.6 -- -- 100
2017-10-01 13:00:00 14.9 3 Sudoeste 9 Sur 1.2 -- -- 100
2017-10-01 12:00:00 14.2 0 Calma 2 Oeste 1 -- -- 100
2017-10-01 11:00:00 13.1 0 Calma 3 Noroeste 0.4 -- -- 100
2017-10-01 10:00:00 12.2 0 Calma 2 Noroeste 0.8 -- -- 100
2017-10-01 09:00:00 11.6 0 Calma -- -- 0.6 -- -- 100
2017-10-01 08:00:00 11.3 0 Calma 2 Noroeste 0 -- -- 100
2017-10-01 07:00:00 10.9 0 Calma 3 Noroeste 0 -- -- 100
2017-10-01 06:00:00 10.4 0 Calma 2 Noroeste 0 -- -- 100
2017-10-01 05:00:00 10.4 0 Calma 3 Noroeste 0 -- -- 100
2017-10-01 04:00:00 10.2 0 Calma 2 Noroeste 0 -- -- 100
2017-10-01 03:00:00 10.2 0 Calma 2 Noroeste 0 -- -- 100
2017-10-01 02:00:00 10.5 0 Calma 2 Noroeste 0 -- -- 100
2017-10-01 01:00:00 10.9 0 Calma 2 Noroeste 0 -- -- 100
2017-10-01 00:00:00 11 0 Calma 0 Calma 0 -- -- 100
2017-09-30 23:00:00 11.4 0 Calma 3 Oeste 0 -- -- 100
2017-09-30 22:00:00 11.9 0 Calma 3 Noroeste 0 -- -- 99
2017-09-30 21:00:00 12.4 0 Calma 3 Norte 0 -- -- 98
2017-09-30 20:00:00 13.3 0 Calma 5 Noroeste 0 -- -- 95
2017-09-30 19:00:00 13.6 2 Norte 10 Norte 0 -- -- 94
2017-09-30 18:00:00 14 0 Calma 10 Norte 0 -- -- 93
2017-09-30 17:00:00 14.8 3 Norte 12 Nordeste 0 -- -- 95
2017-09-30 16:00:00 15.7 3 Este 7 Nordeste 0 -- -- 92
2017-09-30 15:00:00 -- 2 Nordeste 8 Norte 0 -- -- --
2017-09-30 14:00:00 14.3 3 Nordeste 9 Nordeste 0.2 -- -- 98
2017-09-30 13:00:00 14.3 0 Calma 9 Noroeste 0 -- -- 98
2017-09-30 12:00:00 14.8 3 Noroeste 9 Oeste 0 -- -- 99
2017-09-30 11:00:00 15 0 Calma 9 Norte 0.8 -- -- 100
2017-09-30 10:00:00 14.6 0 Calma 3 Norte 0 -- -- 100
2017-09-30 09:00:00 14.2 0 Calma 4 Noroeste 0.2 -- -- 100
2017-09-30 08:00:00 13.9 0 Calma 2 Norte 0 -- -- 100
2017-09-30 07:00:00 13.7 0 Calma 2 Norte 0 -- -- 100
2017-09-30 06:00:00 13.5 0 Calma 6 Noroeste 0 -- -- 100
2017-09-30 05:00:00 13.2 0 Calma 2 Noroeste 0 -- -- 100
2017-09-30 04:00:00 12.9 0 Calma 3 Noroeste 0 -- -- 99
2017-09-30 03:00:00 12.7 0 Calma 2 Noroeste 0 -- -- 99
2017-09-30 02:00:00 12.9 0 Calma 2 Noroeste 0 -- -- 98
2017-09-30 01:00:00 13.4 0 Calma 2 Norte 0 -- -- 97
2017-09-30 00:00:00 14.2 0 Calma 4 Noroeste 0 -- -- 96
2017-09-29 23:00:00 14.8 0 Calma 3 Norte 0 -- -- 94
2017-09-29 22:00:00 15.1 2 Noroeste 12 Noroeste 0 -- -- 92
2017-09-29 21:00:00 15.6 2 Nordeste 12 Norte 0 -- -- 88
2017-09-29 20:00:00 17.3 2 Norte 5 Nordeste 0 -- -- 77
2017-09-29 19:00:00 19.4 0 Calma 10 Norte 0 -- -- 67
2017-09-29 18:00:00 20.5 3 Oeste 17 Este 0 -- -- 64
2017-09-29 17:00:00 22.5 5 Nordeste 24 Norte 0 -- -- 65
2017-09-29 16:00:00 26.5 3 Oeste 12 Oeste 0 -- -- 57
2017-09-29 15:00:00 25.9 3 Sudoeste 13 Sur 0 -- -- 59
2017-09-29 14:00:00 24.9 6 Sudoeste 23 Sudoeste 0 -- -- 60
2017-09-29 13:00:00 23.4 10 Sur 25 Sur 0 -- -- 62
2017-09-29 12:00:00 22.2 12 Sur 29 Sur 0 -- -- 64
2017-09-29 11:00:00 21 13 Sudoeste 31 Sudoeste 0 -- -- 67
2017-09-29 10:00:00 20.1 13 Sudoeste 27 Sudoeste 0 -- -- 68
2017-09-29 09:00:00 18.7 6 Oeste 15 Oeste 0 -- -- 73
2017-09-29 08:00:00 18.6 8 Oeste 27 Sudoeste 0 -- -- 72
2017-09-29 07:00:00 18.9 10 Sudoeste 34 Sudoeste 0 -- -- 71
2017-09-29 06:00:00 19.5 18 Sudoeste 36 Sudoeste 0 -- -- 69
2017-09-29 05:00:00 19.6 18 Sudoeste 34 Sudoeste 0 -- -- 69
2017-09-29 04:00:00 19.8 15 Sudoeste 32 Sudoeste 0 -- -- 68
2017-09-29 03:00:00 20.1 13 Oeste 26 Sudoeste 0 -- -- 67
2017-09-29 02:00:00 20.4 13 Sudoeste 26 Noroeste 0 -- -- 64
2017-09-29 01:00:00 20.4 7 Oeste 20 Sudoeste 0 -- -- 63
2017-09-29 00:00:00 19.7 5 Noroeste 12 Noroeste 0 -- -- 65
2017-09-28 23:00:00 16.5 0 Calma 5 Sudeste 0 -- -- 82
2017-09-28 22:00:00 16.7 0 Calma 4 Noroeste 0 -- -- 84
2017-09-28 21:00:00 17.3 0 Calma 4 Norte 0 -- -- 82
2017-09-28 20:00:00 19.3 0 Calma 9 Noroeste 0 -- -- 75
2017-09-28 19:00:00 23.4 3 Noroeste 19 Sudoeste 0 -- -- 58
2017-09-28 18:00:00 25.2 8 Oeste 23 Oeste 0 -- -- 52
2017-09-28 17:00:00 25.1 11 Sudoeste 26 Sur 0 -- -- 54
2017-09-28 16:00:00 24.9 15 Sudoeste 29 Sudoeste 0 -- -- 58
2017-09-28 15:00:00 24.2 10 Sudoeste 30 Sudoeste 0 -- -- 61
2017-09-28 14:00:00 22.8 13 Sudoeste 32 Sudoeste 0 -- -- 63
2017-09-28 13:00:00 21.6 13 Sudoeste 36 Sudoeste 0 -- -- 69
2017-09-28 12:00:00 20.7 15 Sudoeste 41 Sur 0 -- -- 71
2017-09-28 11:00:00 19.8 18 Sudoeste 42 Sudoeste 0 -- -- 71
2017-09-28 10:00:00 19.4 18 Sudoeste 45 Sur 0 -- -- 69
2017-09-28 09:00:00 18.4 17 Sudoeste 36 Sudoeste 0 -- -- 71
2017-09-28 08:00:00 18.4 16 Sudoeste 38 Sudoeste 0 -- -- 70
2017-09-28 07:00:00 18.6 20 Sudoeste 46 Sudoeste 0 -- -- 68
2017-09-28 06:00:00 18.7 19 Sudoeste 41 Sudoeste 0 -- -- 69
2017-09-28 05:00:00 18.9 21 Sudoeste 33 Sudoeste 0 -- -- 68
2017-09-28 04:00:00 18.7 11 Sudoeste 28 Sudoeste 0 -- -- 69
2017-09-28 03:00:00 18.7 10 Sudoeste 22 Oeste 0 -- -- 68
2017-09-28 02:00:00 15.8 4 Oeste 15 Oeste 0 -- -- 79
2017-09-28 01:00:00 14.1 3 Oeste 6 Sudoeste 0 -- -- 90
2017-09-28 00:00:00 14.1 0 Calma 6 Nordeste 0 -- -- 92
2017-09-27 23:00:00 14.4 0 Calma 4 Sudeste 0 -- -- 92
2017-09-27 22:00:00 15 0 Calma 3 Sur 0 -- -- 91
2017-09-27 21:00:00 15.8 0 Calma 4 Sur 0 -- -- 89
2017-09-27 20:00:00 18 0 Calma 3 Sudeste 0 -- -- 79
2017-09-27 19:00:00 22.7 0 Calma 4 Sur 0 -- -- 63
2017-09-27 18:00:00 -- 0 Calma 5 Sudoeste 0 -- -- --
2017-09-27 17:00:00 24.8 3 Sur 15 Sudoeste 0 -- -- 48
2017-09-27 16:00:00 23.9 8 Sudoeste 27 Sudoeste 0 -- -- 54
2017-09-27 15:00:00 22.5 11 Sur 30 Sudoeste 0 -- -- 59
2017-09-27 14:00:00 20.8 22 Sudoeste 35 Sudoeste 0 -- -- 66
2017-09-27 13:00:00 -- 18 Sudoeste 37 Sudoeste 0 -- -- --
2017-09-27 12:00:00 19.1 15 Sudoeste 44 Sudoeste 0 -- -- 70
2017-09-27 11:00:00 17.8 21 Sudoeste 41 Sudoeste 0 -- -- 73
2017-09-27 10:00:00 16.7 18 Sudoeste 37 Sudoeste 0 -- -- 74
2017-09-27 09:00:00 15.8 12 Oeste 28 Sudoeste 0 -- -- 73
2017-09-27 08:00:00 15.7 13 Sudoeste 32 Sur 0 -- -- 72
2017-09-27 07:00:00 15.7 15 Sudoeste 32 Sur 0 -- -- 72
2017-09-27 06:00:00 15.3 6 Oeste 21 Noroeste 0 -- -- 71
2017-09-27 05:00:00 14.8 7 Noroeste 17 Oeste 0 -- -- 74
2017-09-27 04:00:00 11.2 3 Noroeste 9 Noroeste 0 -- -- 100
2017-09-27 03:00:00 10.5 0 Calma 3 Norte 0 -- -- 100
2017-09-27 02:00:00 10.2 0 Calma 0 Calma 0 -- -- 100
2017-09-27 01:00:00 10.4 0 Calma 2 Norte 0 -- -- 100
2017-09-27 00:00:00 10.7 0 Calma 2 Norte 0 -- -- 100
2017-09-26 23:00:00 11.4 0 Calma 3 Norte 0 -- -- 99
2017-09-26 22:00:00 12.1 0 Calma 3 Norte 0 -- -- 97
2017-09-26 21:00:00 13.2 0 Calma 3 Nordeste 0 -- -- 94
2017-09-26 20:00:00 15 0 Calma 8 Norte 0 -- -- 89
2017-09-26 19:00:00 17.2 3 Norte 11 Norte 0 -- -- 79
2017-09-26 18:00:00 -- 4 Nordeste 14 Nordeste 0 -- -- --
2017-09-26 17:00:00 19.3 3 Nordeste 17 Este 0 -- -- 72
2017-09-26 16:00:00 -- -- -- -- -- -- -- -- --
2017-09-26 15:00:00 18.9 2 Nordeste 14 Este 0 -- -- 70
2017-09-26 14:00:00 18.6 6 Noroeste 14 Noroeste 0 -- -- 67
2017-09-26 13:00:00 18.2 3 Sudeste 10 Sur 0 -- -- 76
2017-09-26 12:00:00 17.4 5 Sur 9 Sur 0 -- -- 83
2017-09-26 11:00:00 15.7 2 Sur 6 Sudeste 0 -- -- 89
2017-09-26 10:00:00 14.1 0 Calma 3 Sudeste 0 -- -- 100
2017-09-26 09:00:00 13.2 0 Calma 2 Este 0 -- -- 100
2017-09-26 08:00:00 13.1 0 Calma 2 Sudeste 0 -- -- 100
2017-09-26 07:00:00 13.1 0 Calma 2 Este 0.2 -- -- 100
2017-09-26 06:00:00 13.2 0 Calma 2 Sudeste 0 -- -- 100
2017-09-26 05:00:00 13.3 0 Calma 6 Sudeste 0 -- -- 100
2017-09-26 04:00:00 13.4 0 Calma 4 Oeste 1.2 -- -- 100
2017-09-26 03:00:00 13.2 0 Calma 3 Noroeste 0.2 -- -- 100
2017-09-26 02:00:00 13.2 0 Calma 2 Noroeste 0.2 -- -- 100
2017-09-26 01:00:00 13.3 0 Calma 3 Sudoeste 2.2 -- -- 100
2017-09-26 00:00:00 13.4 0 Calma 5 Sudoeste 1.2 -- -- 100
2017-09-25 23:00:00 13.4 0 Calma 4 Noroeste 0.2 -- -- 99
2017-09-25 22:00:00 13.5 2 Sudoeste 9 Oeste 0 -- -- 98
2017-09-25 21:00:00 13.9 4 Sur 15 Noroeste 0.4 -- -- 97
2017-09-25 20:00:00 14.2 2 Sudoeste 24 Noroeste 0.2 -- -- 96
2017-09-25 19:00:00 14.6 3 Sudoeste 16 Este 0 -- -- 94
2017-09-25 18:00:00 15.4 2 Sudeste 11 Sudeste 0 -- -- 95
2017-09-25 17:00:00 15.7 3 Este 9 Este 0 -- -- 95
2017-09-25 16:00:00 15.5 4 Sur 18 Sudeste 1.8 -- -- 96
2017-09-25 15:00:00 17 4 Sudoeste 18 Noroeste 0.2 -- -- 89
2017-09-25 14:00:00 17.2 2 Nordeste 12 Este 0 -- -- 84
2017-09-25 13:00:00 15.9 3 Sudoeste 10 Noroeste 0 -- -- 92
2017-09-25 12:00:00 15.4 3 Este 12 Sudeste 0 -- -- 100
2017-09-25 11:00:00 14.2 2 Sur 5 Sudoeste 0.2 -- -- 100
2017-09-25 10:00:00 13.2 0 Calma 3 Sudoeste 1.6 -- -- 100
2017-09-25 09:00:00 13.3 0 Calma 2 Sudoeste 0.6 -- -- 100
2017-09-25 08:00:00 12.9 0 Calma 2 Oeste 0 -- -- 100
2017-09-25 07:00:00 12.7 0 Calma 4 Oeste 0 -- -- 100
2017-09-25 06:00:00 12.5 0 Calma 5 Oeste 0 -- -- 99
2017-09-25 05:00:00 -- 0 Calma 8 Sudoeste 0 -- -- --
2017-09-25 04:00:00 14.1 2 Oeste 9 Oeste 0 -- -- 98
2017-09-25 03:00:00 15 0 Calma 11 Este 0.2 -- -- 96
2017-09-25 02:00:00 15.8 5 Sur 13 Este 0.6 -- -- 100
2017-09-25 01:00:00 16.4 5 Este 17 Oeste 0.2 -- -- 99
2017-09-25 00:00:00 16.4 3 Nordeste 11 Este 0 -- -- 98
2017-09-24 23:00:00 16.1 0 Calma 2 Sudoeste 0 -- -- 95
2017-09-24 22:00:00 16.8 0 Calma 2 Sudoeste 0 -- -- 92
2017-09-24 21:00:00 18.1 0 Calma 2 Sur 0 -- -- 88
2017-09-24 20:00:00 20.7 0 Calma 2 Sur 0 -- -- 78
2017-09-24 19:00:00 24.9 0 Calma 3 Sur 0 -- -- 62
2017-09-24 18:00:00 27.3 0 Calma 4 Sur 0 -- -- 56
2017-09-24 17:00:00 27.4 2 Sudoeste 12 Sur 0 -- -- 48
2017-09-24 16:00:00 27.1 4 Sudoeste 18 Sudoeste 0 -- -- 46
2017-09-24 15:00:00 26.5 10 Sur 21 Sudoeste 0 -- -- 44
2017-09-24 14:00:00 25.3 10 Sudoeste 23 Sudoeste 0 -- -- 52
2017-09-24 13:00:00 23.7 14 Sudoeste 22 Sur 0 -- -- 57
2017-09-24 12:00:00 22.7 6 Sudoeste 17 Sudoeste 0 -- -- 62
2017-09-24 11:00:00 -- 10 Sudoeste 17 Sudoeste 0 -- -- --
2017-09-24 10:00:00 18.2 2 Sudoeste 14 Sudoeste 0 -- -- 83
2017-09-24 09:00:00 15.6 4 Oeste 13 Noroeste 0 -- -- 89
2017-09-24 08:00:00 14.1 2 Oeste 7 Oeste 0 -- -- 99
2017-09-24 07:00:00 12.9 0 Calma 4 Oeste 0 -- -- 100
2017-09-24 06:00:00 12.4 0 Calma 2 Oeste 0 -- -- 100
2017-09-24 05:00:00 12.4 0 Calma 2 Oeste 0 -- -- 100
2017-09-24 04:00:00 12.8 0 Calma 3 Oeste 0 -- -- 99
2017-09-24 03:00:00 -- 0 Calma 3 Oeste 0 -- -- --
2017-09-24 02:00:00 13.5 0 Calma 2 Oeste 0 -- -- 98
2017-09-24 01:00:00 14 0 Calma 2 Oeste 0 -- -- 98
2017-09-24 00:00:00 14.3 0 Calma 2 Oeste 0 -- -- 96
2017-09-23 23:00:00 14.9 0 Calma 3 Oeste 0 -- -- 94
2017-09-23 22:00:00 15.8 0 Calma 3 Oeste 0 -- -- 91
2017-09-23 21:00:00 17 0 Calma 5 Oeste 0 -- -- 86
2017-09-23 20:00:00 19 0 Calma 10 Noroeste 0 -- -- 77
2017-09-23 19:00:00 23.3 0 Calma 9 Sudoeste 0 -- -- 62
2017-09-23 18:00:00 24.3 5 Oeste 18 Sudoeste 0 -- -- 57
2017-09-23 17:00:00 24.3 8 Sur 24 Sur 0 -- -- 57
2017-09-23 16:00:00 23.6 14 Sudoeste 28 Sudoeste 0 -- -- 57
2017-09-23 15:00:00 22.7 14 Sur 31 Sudoeste 0 -- -- 61
2017-09-23 14:00:00 21.7 15 Sudoeste 41 Sur 0 -- -- 64
2017-09-23 13:00:00 20.1 18 Sur 39 Oeste 0 -- -- 66
2017-09-23 12:00:00 18.8 18 Sudoeste 42 Sur 0 -- -- 72
2017-09-23 11:00:00 17.4 19 Sudoeste 38 Sudoeste 0 -- -- 77
2017-09-23 10:00:00 16.8 12 Sudoeste 28 Sur 0 -- -- 80
2017-09-23 09:00:00 15.6 9 Oeste 28 Oeste 0 -- -- 84
2017-09-23 08:00:00 15.4 9 Oeste 33 Sudoeste 0 -- -- 85
2017-09-23 07:00:00 15.5 14 Sudoeste 44 Sudoeste 0 -- -- 85
2017-09-23 06:00:00 15.3 10 Sudoeste 33 Sudeste 0 -- -- 85
2017-09-23 05:00:00 14.5 6 Oeste 18 Noroeste 0 -- -- 93
2017-09-23 04:00:00 10.3 0 Calma 5 Nordeste 0 -- -- 100
2017-09-23 03:00:00 9.9 0 Calma 4 Este 0 -- -- 100
2017-09-23 02:00:00 10.2 0 Calma 3 Nordeste 0 -- -- 100
2017-09-23 01:00:00 10.5 0 Calma 2 Este 0 -- -- 100
2017-09-23 00:00:00 11 0 Calma 2 Este 0 -- -- 100
2017-09-22 23:00:00 11.3 0 Calma 3 Este 0 -- -- 99
2017-09-22 22:00:00 12 0 Calma 3 Nordeste 0 -- -- 97
2017-09-22 21:00:00 13.4 0 Calma 3 Nordeste 0 -- -- 92
2017-09-22 20:00:00 15.1 0 Calma 12 Este 0 -- -- 85
2017-09-22 19:00:00 17.8 3 Este 11 Este 0 -- -- 73
2017-09-22 18:00:00 18.8 2 Este 13 Este 0 -- -- 74
2017-09-22 17:00:00 18 4 Este 12 Este 0 -- -- 76
2017-09-22 16:00:00 18.2 3 Nordeste 10 Este 0 -- -- 74
2017-09-22 15:00:00 18 3 Norte 9 Nordeste 0 -- -- 78
2017-09-22 14:00:00 17.3 4 Este 10 Este 0 -- -- 81
2017-09-22 13:00:00 14.9 0 Calma 4 Oeste 0.2 -- -- 100
2017-09-22 12:00:00 13.7 0 Calma 5 Oeste 0 -- -- 100
2017-09-22 11:00:00 12.7 0 Calma 2 Oeste 0 -- -- 100
2017-09-22 10:00:00 12 0 Calma 3 Oeste 0 -- -- 100
2017-09-22 09:00:00 11.6 0 Calma 4 Oeste 0 -- -- 100
2017-09-22 08:00:00 11.1 0 Calma 4 Noroeste 0 -- -- 100
2017-09-22 07:00:00 11.3 2 Noroeste 5 Noroeste 1 -- -- 100
2017-09-22 06:00:00 11.4 0 Calma 7 Noroeste 0 -- -- 100
2017-09-22 05:00:00 11.8 3 Noroeste 6 Noroeste 0 -- -- 100
2017-09-22 04:00:00 12.3 0 Calma 6 Noroeste 1 -- -- 100
2017-09-22 03:00:00 12.4 0 Calma 6 Nordeste 0 -- -- 99
2017-09-22 02:00:00 12 0 Calma 6 Este 0 -- -- 99
2017-09-22 01:00:00 12.1 0 Calma 3 Oeste 0 -- -- 98
2017-09-22 00:00:00 12.4 0 Calma 2 Noroeste 0 -- -- 97
2017-09-21 23:00:00 12.8 0 Calma 2 Oeste 0 -- -- 96
2017-09-21 22:00:00 13.5 3 Oeste 9 Oeste 0 -- -- 92
2017-09-21 21:00:00 14.2 0 Calma 11 Norte 0 -- -- 89
2017-09-21 20:00:00 15.4 2 Este 9 Este 0 -- -- 86
2017-09-21 19:00:00 16.2 2 Noroeste 15 Noroeste 0 -- -- 82
2017-09-21 18:00:00 18.6 3 Nordeste 15 Norte 0 -- -- 71
2017-09-21 17:00:00 20.5 4 Noroeste 18 Norte 0 -- -- 66
2017-09-21 16:00:00 22.1 5 Noroeste 19 Este 0 -- -- 60
2017-09-21 15:00:00 22.7 4 Este 17 Este 0 -- -- 54
2017-09-21 14:00:00 22.7 4 Sudoeste 13 Sudoeste 0 -- -- 41
2017-09-21 13:00:00 22.3 3 Este 17 Sudoeste 0 -- -- 46
2017-09-21 12:00:00 20.3 4 Sudeste 19 Sudoeste 0 -- -- 41
2017-09-21 11:00:00 19.2 5 Sudoeste 13 Oeste 0 -- -- 49
2017-09-21 10:00:00 16.1 3 Sur 14 Oeste 0 -- -- 62
2017-09-21 09:00:00 14 5 Oeste 12 Noroeste 0 -- -- 52
2017-09-21 08:00:00 12 4 Oeste 15 Noroeste 0 -- -- 64
2017-09-21 07:00:00 11.7 0 Calma 7 Sur 0 -- -- 64
2017-09-21 06:00:00 13.1 0 Calma 19 Sur 0 -- -- 60
2017-09-21 05:00:00 13.9 6 Sudoeste 19 Sur 0 -- -- 51
2017-09-21 04:00:00 13.1 5 Oeste 14 Oeste 0 -- -- 58
2017-09-21 03:00:00 11.2 4 Noroeste 10 Norte 0 -- -- 76
2017-09-21 02:00:00 10.8 0 Calma 3 Este 0 -- -- 82
2017-09-21 01:00:00 10.4 0 Calma 3 Este 0 -- -- 86
2017-09-21 00:00:00 9.9 0 Calma 2 Este 0 -- -- 91
2017-09-20 23:00:00 10.2 0 Calma 0 Calma 0 -- -- 90
2017-09-20 22:00:00 11 0 Calma 2 Este 0 -- -- 86
2017-09-20 21:00:00 12.6 0 Calma 4 Este 0 -- -- 80
2017-09-20 20:00:00 15.2 0 Calma 4 Este 0 -- -- 67
2017-09-20 19:00:00 20.8 0 Calma 5 Este 0 -- -- 52
2017-09-20 18:00:00 22.1 3 Este 6 Nordeste 0 -- -- 43
2017-09-20 17:00:00 23.1 0 Calma 7 Nordeste 0 -- -- 39
2017-09-20 16:00:00 22.3 4 Este 9 Este 0 -- -- 38
2017-09-20 15:00:00 22.2 3 Sur 8 Sudeste 0 -- -- 28
2017-09-20 14:00:00 21.1 3 Sur 8 Noroeste 0 -- -- 36
2017-09-20 13:00:00 19 4 Sur 7 Sudoeste 0 -- -- 37
2017-09-20 12:00:00 15.5 3 Sudoeste 5 Sudoeste 0 -- -- 59
2017-09-20 11:00:00 11.5 0 Calma 3 Sudoeste 0 -- -- 89
2017-09-20 10:00:00 7.6 0 Calma 3 Sudeste 0 -- -- 100
2017-09-20 09:00:00 5 0 Calma 3 Noroeste 0 -- -- 100
2017-09-20 08:00:00 4.8 0 Calma 2 Noroeste 0 -- -- 100
2017-09-20 07:00:00 5.2 0 Calma 2 Nordeste 0 -- -- 100
2017-09-20 06:00:00 5.3 0 Calma -- -- 0 -- -- 100
2017-09-20 05:00:00 5.7 0 Calma 2 Norte 0 -- -- 100
2017-09-20 04:00:00 6.1 0 Calma 2 Sudoeste 0 -- -- 100
2017-09-20 03:00:00 6.5 0 Calma 2 Sur 0 -- -- 100
2017-09-20 02:00:00 7.1 0 Calma 2 Noroeste 0 -- -- 100
2017-09-20 01:00:00 7.2 0 Calma 2 Nordeste 0 -- -- 100
2017-09-20 00:00:00 7.8 0 Calma 2 Sudeste 0 -- -- 100